createdAt,value
2023-01-22T00:00:52.792Z,99622.35
2023-01-22T00:06:58.799Z,99633.83
2023-01-22T00:13:14.033Z,99635.40
2023-01-22T00:18:27.207Z,99644.08
2023-01-22T00:24:37.147Z,99646.20
2023-01-22T00:30:07.591Z,99655.10
2023-01-22T00:36:04.138Z,99654.60
2023-01-22T00:42:02.597Z,99656.77
2023-01-22T00:48:27.307Z,99653.45
2023-01-22T00:54:31.088Z,99647.00
2023-01-22T01:00:55.942Z,99649.57
2023-01-22T01:06:42.295Z,99651.56
2023-01-22T01:12:56.650Z,99642.85
2023-01-22T01:25:59.130Z,99649.58
2023-01-22T01:38:25.414Z,99661.12
2023-01-22T01:44:39.274Z,99669.39
2023-01-22T01:50:37.795Z,99694.36
2023-01-22T01:56:18.984Z,99698.95
2023-01-22T02:02:25.997Z,99702.54
2023-01-22T02:08:44.150Z,99701.02
2023-01-22T02:14:42.662Z,99701.48
2023-01-22T02:20:21.435Z,99706.14
2023-01-22T02:26:09.471Z,99702.68
2023-01-22T02:31:59.982Z,99690.27
2023-01-22T02:37:41.085Z,99691.16
2023-01-22T02:44:18.299Z,99685.04
2023-01-22T02:50:25.609Z,99686.79
2023-01-22T02:55:45.292Z,99688.77
2023-01-22T03:02:00.540Z,99685.80
2023-01-22T03:08:05.140Z,99685.16
2023-01-22T03:14:34.193Z,99692.77
2023-01-22T03:20:35.429Z,99702.41
2023-01-22T03:26:26.243Z,99707.80
2023-01-22T03:31:58.430Z,99708.83
2023-01-22T03:38:23.357Z,99709.72
2023-01-22T03:44:22.465Z,99712.96
2023-01-22T03:49:46.229Z,99711.11
2023-01-22T03:55:00.571Z,99711.57
2023-01-22T04:00:57.702Z,99708.65
2023-01-22T04:07:04.903Z,99712.70
2023-01-22T04:13:11.910Z,99713.11
2023-01-22T04:19:27.492Z,99719.30
2023-01-22T04:25:04.294Z,99721.45
2023-01-22T04:30:26.445Z,99721.29
2023-01-22T04:36:53.910Z,99715.02
2023-01-22T04:42:13.113Z,99715.54
2023-01-22T04:47:24.020Z,99717.76
2023-01-22T04:53:27.347Z,99719.70
2023-01-22T04:58:31.864Z,99716.80
2023-01-22T05:04:38.987Z,99714.02
2023-01-22T05:10:57.775Z,99721.05
2023-01-22T05:17:11.030Z,99726.04
2023-01-22T05:23:26.811Z,99724.36
2023-01-22T05:29:27.268Z,99733.49
2023-01-22T05:35:30.210Z,99729.05
2023-01-22T05:41:00.517Z,99749.27
2023-01-22T05:46:22.394Z,99749.03
2023-01-22T05:52:05.456Z,99767.82
2023-01-22T05:57:23.987Z,99782.27
2023-01-22T06:02:58.621Z,99778.52
2023-01-22T06:08:58.565Z,99776.35
2023-01-22T06:15:03.344Z,99782.49
2023-01-22T06:20:50.038Z,99779.60
2023-01-22T06:27:07.027Z,99774.66
2023-01-22T06:33:25.815Z,99770.73
2023-01-22T06:38:57.061Z,99775.65
2023-01-22T06:45:21.546Z,99783.80
2023-01-22T06:51:17.300Z,99796.50
2023-01-22T06:57:05.899Z,99797.52
2023-01-22T07:02:31.734Z,99807.40
2023-01-22T07:08:48.590Z,99800.79
2023-01-22T07:14:55.703Z,99803.23
2023-01-22T07:20:50.450Z,99821.29
2023-01-22T07:26:56.273Z,99829.55
2023-01-22T07:33:02.533Z,99841.75
2023-01-22T07:39:11.099Z,99845.55
2023-01-22T07:45:26.739Z,99845.77
2023-01-22T07:51:44.771Z,99842.19
2023-01-22T08:02:12.946Z,99841.34
2023-01-22T08:08:29.302Z,99832.29
2023-01-22T08:14:31.257Z,99838.67
2023-01-22T08:20:45.481Z,99839.92
2023-01-22T08:26:12.341Z,99845.46
2023-01-22T08:32:01.749Z,99850.31
2023-01-22T08:37:51.639Z,99850.77
2023-01-22T08:43:46.836Z,99858.71
2023-01-22T09:03:20.031Z,99860.95
2023-01-22T09:10:02.175Z,99865.11
2023-01-22T09:15:37.808Z,99865.45
2023-01-22T09:22:01.921Z,99870.94
2023-01-22T09:28:09.455Z,99875.70
2023-01-22T09:34:18.410Z,99870.17
2023-01-22T09:40:03.599Z,99866.27
2023-01-22T09:45:46.682Z,99863.47
2023-01-22T09:51:31.813Z,99867.00
2023-01-22T10:03:18.515Z,99850.68
2023-01-22T10:08:59.267Z,99854.81
2023-01-22T10:15:02.237Z,99862.36
2023-01-22T10:21:27.162Z,99858.67
2023-01-22T10:27:37.120Z,99858.15
2023-01-22T10:32:53.072Z,99860.19
2023-01-22T10:46:07.390Z,99862.41
2023-01-22T10:52:16.412Z,99867.05
2023-01-22T10:59:28.286Z,99867.57
2023-01-22T11:05:13.507Z,99867.45
2023-01-22T11:11:44.551Z,99867.69
2023-01-22T11:17:37.562Z,99860.58
2023-01-22T11:23:20.229Z,99861.11
2023-01-22T11:29:18.483Z,99863.27
2023-01-22T11:36:37.782Z,99861.23
2023-01-22T11:48:49.927Z,99851.36
2023-01-22T11:54:43.270Z,99855.63
2023-01-22T12:00:44.864Z,99862.48
2023-01-22T12:14:09.271Z,99866.49
2023-01-22T13:26:32.965Z,99917.25
2023-01-22T13:32:57.214Z,99928.13
2023-01-22T13:38:52.434Z,99931.86
2023-01-22T13:51:21.903Z,99936.13
2023-01-22T13:56:39.217Z,99931.75
2023-01-22T14:03:04.546Z,99931.87
2023-01-22T14:08:14.633Z,99942.90
2023-01-22T14:14:05.928Z,99941.35
2023-01-22T14:19:56.151Z,99948.27
2023-01-22T14:25:40.325Z,99953.59
2023-01-22T14:30:50.303Z,99970.65
2023-01-22T14:37:03.248Z,99971.70
2023-01-22T14:42:56.116Z,99982.36
2023-01-22T14:49:03.261Z,99997.45
2023-01-22T14:54:32.893Z,99995.09
2023-01-22T15:00:59.506Z,99992.84
2023-01-22T15:06:19.619Z,100005.90
2023-01-22T15:11:52.112Z,100002.83
2023-01-22T15:17:22.238Z,100007.45
2023-01-22T15:23:01.103Z,100015.20
2023-01-22T15:29:05.873Z,100025.48
2023-01-22T15:34:24.826Z,100032.84
2023-01-22T15:40:21.265Z,100035.10
2023-01-22T15:45:54.445Z,100041.87
2023-01-22T15:51:20.223Z,100043.66
2023-01-22T15:56:33.202Z,100060.87
2023-01-22T16:02:03.715Z,100070.43
2023-01-22T16:07:10.339Z,100077.32
2023-01-22T16:12:23.533Z,100078.12
2023-01-22T16:17:48.733Z,100076.64
2023-01-22T16:23:41.215Z,100075.66
2023-01-22T16:36:37.613Z,100081.81
2023-01-22T16:42:21.852Z,100087.93
2023-01-22T16:49:35.574Z,100093.66
2023-01-22T16:55:05.484Z,100101.52
2023-01-22T17:01:02.724Z,100110.37
2023-01-22T17:07:32.765Z,100115.68
2023-01-22T17:13:10.859Z,100123.71
2023-01-22T17:19:24.767Z,100128.17
2023-01-22T17:25:00.584Z,100135.83
2023-01-22T17:30:44.901Z,100150.65
2023-01-22T17:36:32.265Z,100160.23
2023-01-22T17:42:41.086Z,100175.06
2023-01-22T17:48:25.061Z,100181.92
2023-01-22T17:54:19.294Z,100184.42
2023-01-22T18:04:23.139Z,100193.91
2023-01-22T18:09:52.153Z,100199.64
2023-01-22T18:15:41.807Z,100208.14
2023-01-22T18:22:08.846Z,100216.98
2023-01-22T18:28:23.167Z,100222.14
2023-01-22T18:34:19.999Z,100224.99
2023-01-22T18:40:26.962Z,100233.10
2023-01-22T18:46:44.168Z,100238.13
2023-01-22T18:52:29.519Z,100240.94
2023-01-22T18:58:26.757Z,100242.17
2023-01-22T19:04:34.919Z,100234.83
2023-01-22T19:10:28.281Z,100235.73
2023-01-22T19:16:35.348Z,100235.42
2023-01-22T19:22:51.957Z,100239.91
2023-01-22T19:36:15.844Z,100253.70
2023-01-22T19:42:24.578Z,100256.77
2023-01-22T19:48:13.495Z,100261.70
2023-01-22T19:54:15.712Z,100264.36
2023-01-22T19:59:59.395Z,100271.79
2023-01-22T20:19:14.106Z,100290.65
2023-01-22T20:25:54.409Z,100294.59
2023-01-22T20:31:59.837Z,100295.73
2023-01-22T20:37:46.206Z,100306.27
2023-01-22T20:50:26.982Z,100313.55
2023-01-22T21:02:10.736Z,100310.92
2023-01-22T21:08:02.283Z,100307.44
2023-01-22T21:13:52.790Z,100319.80
2023-01-22T21:20:00.511Z,100332.33
2023-01-22T21:25:34.540Z,100329.26
2023-01-22T21:31:35.047Z,100323.64
2023-01-22T21:37:15.792Z,100333.57
2023-01-22T21:43:08.404Z,100340.34
2023-01-22T21:48:27.844Z,100349.85
2023-01-22T21:53:41.523Z,100357.83
2023-01-22T22:03:22.053Z,100366.28
2023-01-22T22:09:10.913Z,100364.77
2023-01-22T22:14:44.237Z,100366.02
2023-01-22T22:19:50.137Z,100371.84
2023-01-22T22:25:13.844Z,100376.85
2023-01-22T22:30:36.841Z,100376.05
2023-01-22T22:35:56.155Z,100375.13
2023-01-22T22:41:33.262Z,100381.30
2023-01-22T22:46:39.353Z,100380.48
2023-01-22T22:52:17.513Z,100379.85
2023-01-22T23:03:31.615Z,100404.18
2023-01-22T23:10:08.711Z,100396.45
2023-01-22T23:21:43.950Z,100393.83
2023-01-22T23:28:12.002Z,100405.42
2023-01-22T23:34:21.476Z,100416.22
2023-01-22T23:40:44.260Z,100428.23
2023-01-22T23:46:49.255Z,100437.20
